Aigaion — SYMC — position and weather

sailwx.info

Track history (hours):
 
Tides and Currents Weather Stations Pressure Air Temp Water Temp Dewpoint Dewpoint Depression Visibility Wind Speed Wind Dir Waves Ship Positions

Aigaion

Last reported at 2017-Dec-18 11:00 UTC. Time now 2017-Dec-18 11:13 UTC.
Position N 24°50' E 122°35'.

Length 289 m; draft 17.9 m.

Type: Cargo ship. MMSI: 240174000.

Date/timePositionNaut miles runAvg speedWind from/ knotsBaromVisibWave heightAir tempDewpointWater temp
2017-Dec-18 11:00N 24°50' E 122°35'5 9.5
2017-Dec-18 10:31N 24°45' E 122°33'5 9.1
2017-Dec-18 10:00N 24°41' E 122°31'4 8.9
2017-Dec-18 09:30N 24°37' E 122°29'5 9.6
2017-Dec-18 09:00N 24°33' E 122°27'5 9.3
2017-Dec-18 08:30N 24°28' E 122°26'4 8.9
2017-Dec-18 08:00N 24°24' E 122°24'4 8.9
2017-Dec-18 07:30N 24°20' E 122°22'5 9.2
2017-Dec-18 07:01N 24°16' E 122°20'5 9.2
2017-Dec-18 06:30N 24°12' E 122°18'5 9.1
2017-Dec-18 06:01N 24°08' E 122°15'5 9.4
2017-Dec-18 05:30N 24°04' E 122°13'5 9.4
2017-Dec-18 05:00N 23°59' E 122°11'5 9.4
2017-Dec-18 04:31N 23°55' E 122°09'5 9.6
2017-Dec-18 03:59N 23°50' E 122°07'53 8.6
2017-Dec-17 21:49N 22°60' E 121°49'2 7.5
2017-Dec-17 21:29N 22°57' E 121°48'32 7.0
2017-Dec-17 16:55N 22°28' E 121°35'5 6.6
2017-Dec-17 16:13N 22°24' E 121°33'12 6.6
2017-Dec-17 14:25N 22°14' E 121°26'13 6.7
2017-Dec-17 12:31N 22°02' E 121°20'0 6.6
2017-Dec-17 12:29N 22°02' E 121°20'  
Track history (hours):
 
Tides and Currents Weather Stations Pressure Air Temp Water Temp Dewpoint Dewpoint Depression Visibility Wind Speed Wind Dir Waves Ship Positions

Aigaion

Last reported at 2017-Dec-18 11:00 UTC. Time now 2017-Dec-18 11:13 UTC.
Position N 24°50' E 122°35'.

Length 289 m; draft 17.9 m.

Type: Cargo ship. MMSI: 240174000.

Date/timePositionNaut miles runAvg speedWind from/ knotsBaromVisibWave heightAir tempDewpointWater temp
2017-Dec-18 11:00N 24°50' E 122°35'5 9.5
2017-Dec-18 10:31N 24°45' E 122°33'5 9.1
2017-Dec-18 10:00N 24°41' E 122°31'4 8.9
2017-Dec-18 09:30N 24°37' E 122°29'5 9.6
2017-Dec-18 09:00N 24°33' E 122°27'5 9.3
2017-Dec-18 08:30N 24°28' E 122°26'4 8.9
2017-Dec-18 08:00N 24°24' E 122°24'4 8.9
2017-Dec-18 07:30N 24°20' E 122°22'5 9.2
2017-Dec-18 07:01N 24°16' E 122°20'5 9.2
2017-Dec-18 06:30N 24°12' E 122°18'5 9.1
2017-Dec-18 06:01N 24°08' E 122°15'5 9.4
2017-Dec-18 05:30N 24°04' E 122°13'5 9.4
2017-Dec-18 05:00N 23°59' E 122°11'5 9.4
2017-Dec-18 04:31N 23°55' E 122°09'5 9.6
2017-Dec-18 03:59N 23°50' E 122°07'53 8.6
2017-Dec-17 21:49N 22°60' E 121°49'2 7.5
2017-Dec-17 21:29N 22°57' E 121°48'32 7.0
2017-Dec-17 16:55N 22°28' E 121°35'5 6.6
2017-Dec-17 16:13N 22°24' E 121°33'12 6.6
2017-Dec-17 14:25N 22°14' E 121°26'13 6.7
2017-Dec-17 12:31N 22°02' E 121°20'0 6.6
2017-Dec-17 12:29N 22°02' E 121°20'  

Dump ship's entire track history